首页
METAR-TAF:

METAR-TAF

机场 :

艾姆斯, 艾奥瓦州, 美国

纬度: 41-59-26N, 经度: 093-37-08W, 海拔: 288米

当前天气观测

该预报发布于20分钟前的20:53 UTC
风速14节,风向西北
温度 -6°C
湿度 73%
气压 1014 hPa
能見度: 16.1公里
阴天层高于2500英尺

METAR: KAMW 142053Z AUTO 32014KT 10SM OVC025 M06/M10 A2994 RMK AO2 SLP149 T10561100 53001

时间: 15:13 (21:13 UTC)


TAF: 丢失

超过4000个机场的气象观测和天气预报(METAR&TAF报告)。

可查询的气象台以黄色和红色小点在地图上表示。

将鼠标移到小点上方,可查看气象台名称。

然后点击查看天气观测和预报。

如需切换地图:点击带黑十字的绿色按钮放大地图;点击带横线的绿色按钮缩小地图;或者点击绿色箭头查看邻近地区的地图。


METAR-TAF: